• Join FlightAware (Why Join?)
  • Login
  • US Flag 
01:11AM EST


 

Airport Tracker/Info


-or-


 

Live Flight TrackerFlight Track Log ✈ N799CP ✈ 05-Jan-2014 ✈ KTEB - KSTP

Flight Track Log - Related Links

Times and Time Zones

All times are in EST time to prevent confusion due to time zone crossing. See the N799CP flight status page for this flight to view local times or setup timezone preferences in your user account.

Time Position Orientation Groundspeed Altitude Reporting Facility
EST Latitude Longitude Course Direction KTS MPH feet Rate Location/Type
04:59PM 40.8422 -74.0601 149° Southeast 94 108  Level FlightAware ADS-B
04:59PM 40.8833 -74.0500 288° West 193 222 1,500 960 Climbing New York TRACON
05:00PM 40.9333 -74.1000 323° Northwest 277 319 1,900 1,680 Climbing New York TRACON
05:01PM 41.0440 -74.1500 North  Level FlightAware Approximate
05:01PM 40.9333 -74.1833 270° West 241 277 4,900  Level New York TRACON
05:02PM 41.1447 -74.2016 338° Northwest  Level FlightAware Approximate
05:02PM 40.9500 -74.2833 282° West 249 287 9,000  Level New York TRACON
05:03PM 41.2449 -74.2564 337° Northwest  Level FlightAware Approximate
05:04PM 41.3449 -74.3120 337° Northwest  Level FlightAware Approximate
05:04PM 41.0761 -74.3464 339° North 338 389 12,900  Level New York Center
05:05PM 41.4145 -74.4081 288° West  Level FlightAware Approximate
05:05PM 41.1947 -74.3500 359° North 367 422 16,000  Level New York Center
05:06PM 41.2742 -74.4122 330° Northwest 365 420 18,500 2,580 Climbing New York Center
05:07PM 41.3353 -74.5206 307° West 353 406 21,200 2,520 Climbing New York Center
05:08PM 41.3708 -74.6469 291° West 348 400 23,600 2,400 Climbing New York Center
05:09PM 41.4103 -74.7764 292° West 361 415 26,100 2,280 Climbing New York Center
05:10PM 41.4514 -74.9117 292° West 385 443 28,200 1,980 Climbing New York Center
05:11PM 41.4942 -75.0528 292° West 400 460 30,100 1,860 Climbing New York Center
05:16PM 41.7172 -75.7948 292° West 398 458 40,000 1,620 Climbing FlightAware ADS-B (KWWD)
05:17PM 41.7408 -75.8719 292° West 400 460 40,000  Level New York Center
05:18PM 41.7861 -76.0283 291° West 400 460 40,000  Level New York Center
05:21PM 41.8783 -76.3469 291° West 403 464 40,000  Level Cleveland Center
05:22PM 41.9192 -76.4872 291° West 404 465 40,000  Level Cleveland Center
05:23PM 41.9603 -76.6286 291° West 406 467 40,000  Level Cleveland Center
05:24PM 42.0003 -76.7706 291° West 407 468 40,000  Level Cleveland Center
05:25PM 42.0408 -76.9136 291° West 410 472 40,000  Level Cleveland Center
05:26PM 42.0811 -77.0572 291° West 409 471 40,000  Level Cleveland Center
05:27PM 42.1289 -77.2278 291° West 407 468 40,000  Level Cleveland Center
05:28PM 42.1686 -77.3722 290° West 411 473 40,000  Level Cleveland Center
05:29PM 42.2100 -77.5183 291° West 415 478 40,000  Level Cleveland Center
05:30PM 42.2500 -77.6664 290° West 417 480 40,000  Level Cleveland Center
05:36PM 42.2821 -77.7810 290° West 421 484 40,000  Level FlightAware ADS-B (CYKF)
05:40PM 42.6436 -79.1424 290° West 409 471 40,000  Level FlightAware ADS-B
05:40PM 42.6478 -79.1587 289° West 408 470 40,000  Level FlightAware ADS-B
05:42PM 42.6987 -79.3571 289° West 408 470 40,000  Level FlightAware ADS-B
05:42PM 42.6987 -79.3571 289° West 410 472 40,000  Level FlightAware ADS-B
05:44PM 42.7533 -79.5708 289° West 413 475 40,000  Level FlightAware ADS-B (CYKF)
05:45PM 42.7533 -79.5708 289° West 421 484 40,000  Level FlightAware ADS-B (CYKF)
05:48PM 42.9598 -80.4005 289° West 425 489 40,000  Level FlightAware ADS-B (CYKF)
05:49PM 42.9977 -80.5558 288° West 427 491 40,000  Level FlightAware ADS-B (CYKF)
05:50PM 43.0163 -80.6325 288° West 426 490 40,000  Level FlightAware ADS-B (CYKF)
05:51PM 43.0474 -80.7607 288° West 426 490 40,000  Level FlightAware ADS-B (CYKF)
05:51PM 43.0719 -80.8619 288° West 424 488 40,000  Level FlightAware ADS-B (CYKF)
05:52PM 43.0916 -80.9440 288° West 423 487 40,000  Level FlightAware ADS-B (CYKF)
05:53PM 43.1194 -81.0603 288° West 420 483 40,000  Level FlightAware ADS-B (CYKF)
05:53PM 43.1413 -81.1536 288° West 421 484 40,000  Level FlightAware ADS-B (CYKF)
05:54PM 43.1583 -81.2254 288° West 421 484 40,000  Level FlightAware ADS-B (CYKF)
05:55PM 43.1962 -81.3865 288° West 421 484 40,000  Level FlightAware ADS-B (CYKF)
05:56PM 43.2477 -81.6080 288° West 424 488 40,000 420 Level FlightAware ADS-B (CYKF)
05:57PM 43.2691 -81.7001 288° West 419 482 40,900 1,140 Climbing FlightAware ADS-B (CYKF)
05:58PM 43.3148 -81.8986 288° West 406 467 42,300 960 Climbing FlightAware ADS-B (CYKF)
05:59PM 43.3331 -81.9777 288° West 394 453 43,000 480 Climbing FlightAware ADS-B (CYKF)
06:00PM 43.3628 -82.1087 287° West 398 458 43,000  Level FlightAware ADS-B (CYKF)
06:00PM 43.3835 -82.2005 287° West 397 457 43,000  Level FlightAware ADS-B (CYKF)
06:01PM 43.4030 -82.2867 287° West 397 457 43,000  Level FlightAware ADS-B (CYKF)
06:03PM 43.4402 -82.4525 287° West 402 463 43,000  Level FlightAware ADS-B (CYKF)
06:03PM 43.4867 -82.6756 287° West 403 464 43,000  Level Minneapolis Center
06:04PM 43.5208 -82.8300 287° West 407 468 43,000  Level Minneapolis Center
06:05PM 43.5539 -82.9769 287° West 405 466 43,000  Level Minneapolis Center
06:07PM 43.5858 -83.1222 287° West 400 460 43,000  Level Minneapolis Center
06:08PM 43.6153 -83.2683 286° West 397 457 43,000  Level Minneapolis Center
06:09PM 43.6469 -83.4147 287° West 398 458 43,000  Level Minneapolis Center
06:10PM 43.6797 -83.5614 287° West 401 461 43,000  Level Minneapolis Center
06:11PM 43.7106 -83.7086 286° West 401 461 43,000  Level Minneapolis Center
06:12PM 43.7417 -83.8561 286° West 400 460 43,000  Level Minneapolis Center
06:13PM 43.7714 -84.0025 286° West 399 459 43,000  Level Minneapolis Center
06:14PM 43.8094 -84.1819 286° West 404 465 43,000  Level Minneapolis Center
06:15PM 43.8403 -84.3303 286° West 404 465 43,000  Level Minneapolis Center
06:21PM 44.0332 -85.2944 286° West 418 481 43,000  Level FlightAware ADS-B (KMDW)
06:25PM 44.1626 -85.9723 285° West 425 489 43,000  Level FlightAware ADS-B (KMDW)
06:27PM 44.2174 -86.2677 285° West 425 489 43,000  Level FlightAware ADS-B (KMDW)
06:28PM 44.2408 -86.3943 285° West 426 490 43,000  Level FlightAware ADS-B (KMDW)
06:29PM 44.2580 -86.4894 284° West 427 491 43,000  Level FlightAware ADS-B (KMDW)
06:29PM 44.2771 -86.5933 284° West 428 493 43,000  Level FlightAware ADS-B (KMDW)
06:30PM 44.2960 -86.6974 284° West 429 494 43,000  Level FlightAware ADS-B (KMDW)
06:32PM 44.3492 -86.9948 284° West 434 499 43,000  Level FlightAware ADS-B (KMDW)
06:33PM 44.3762 -87.1472 284° West 435 501 43,000  Level FlightAware ADS-B (KMDW)
06:33PM 44.3953 -87.2562 284° West 435 501 43,000  Level FlightAware ADS-B (KMDW)
06:34PM 44.4133 -87.3593 284° West 435 501 43,000  Level FlightAware ADS-B (KMDW)
06:35PM 44.4449 -87.5411 284° West 428 493 43,000  Level FlightAware ADS-B (KMDW)
06:36PM 44.4709 -87.6938 283° West 425 489 43,000  Level FlightAware ADS-B (KMDW)
06:37PM 44.4888 -87.7983 284° West 425 489 43,000  Level FlightAware ADS-B (KMDW)
06:37PM 44.5082 -87.9142 283° West 426 490 43,000  Level FlightAware ADS-B (KMDW)
06:38PM 44.5349 -88.0743 283° West 428 493 43,000  Level FlightAware ADS-B (KMDW)
06:39PM 44.5528 -88.1818 283° West 429 494 43,000  Level FlightAware ADS-B (KMDW)
06:40PM 44.5669 -88.2595 284° West 432 497 43,000  Level FlightAware ADS-B (KMDW)
06:40PM 44.5792 -88.3265 285° West 432 497 43,000  Level FlightAware ADS-B (KMDW)
06:41PM 44.6192 -88.5417 285° West 431 496 43,000  Level Minneapolis Center
06:42PM 44.6481 -88.7064 284° West 436 502 43,000  Level Minneapolis Center
06:43PM 44.6761 -88.8689 284° West 432 497 43,000  Level Minneapolis Center
06:44PM 44.7061 -89.0328 284° West 434 499 43,000 -840 Level Minneapolis Center
06:45PM 44.7406 -89.2294 284° West 434 499 41,400 -1,740 Descending Minneapolis Center
06:46PM 44.7692 -89.3969 284° West 440 506 39,500 -1,860 Descending Minneapolis Center
06:47PM 44.7975 -89.5631 284° West 439 505 37,600 -1,860 Descending Minneapolis Center
06:48PM 44.8258 -89.7256 284° West 432 497 35,800 -1,920 Descending Minneapolis Center
06:50PM 44.8567 -89.9097 283° West 441 507 33,700 -1,860 Descending Minneapolis Center
06:51PM 44.8839 -90.0769 283° West 438 504 32,000 -840 Descending Minneapolis Center
06:52PM 44.9108 -90.2406 283° West 430 495 32,000  Level Minneapolis Center
06:53PM 44.9381 -90.4028 283° West 425 489 32,000  Level Minneapolis Center
06:54PM 44.9642 -90.5681 283° West 429 494 32,000  Level Minneapolis Center
06:55PM 44.9914 -90.7325 283° West 429 494 32,000 -1,260 Level Minneapolis Center
06:56PM 45.0194 -90.9189 282° West 426 490 29,500 -2,400 Descending Minneapolis Center
06:57PM 45.0456 -91.0767 283° West 419 482 27,100 -2,400 Descending Minneapolis Center
06:58PM 45.0683 -91.2231 282° West 398 458 24,700 -2,220 Descending Minneapolis Center
06:59PM 45.0897 -91.3681 282° West 384 442 22,600 -2,040 Descending Minneapolis Center
07:00PM 45.1094 -91.5075 281° West 372 428 20,600 -2,100 Descending Minneapolis Center
07:01PM 45.1117 -91.6411 271° West 352 405 18,300 -1,920 Descending Minneapolis Center
07:02PM 45.1156 -91.7697 272° West 336 387 16,700 -1,680 Descending Minneapolis Center
07:03PM 45.1183 -91.8914 272° West 316 364 14,900 -1,860 Descending Minneapolis Center
07:04PM 45.1217 -92.0328 272° West 299 344 12,900 -1,740 Descending Minneapolis Center
07:05PM 45.1244 -92.1375 272° West 271 312 11,400 -1,500 Descending Minneapolis Center
07:06PM 45.1261 -92.2389 271° West 260 299 9,900 -1,440 Descending Minneapolis Center
07:07PM 45.1286 -92.3392 272° West 256 295 8,500 -960 Descending Minneapolis Center
07:08PM 45.1306 -92.4342 272° West 244 281 8,000 -480 Descending Minneapolis Center
07:09PM 45.1322 -92.5267 271° West 237 273 7,600 -1,080 Descending Minneapolis Center
07:10PM 45.0933 -92.5958 231° Southwest 243 280 5,900 -1,740 Descending Minneapolis Center
07:11PM 45.0289 -92.6686 219° Southwest 245 282 4,100 -1,380 Descending Minneapolis Center
07:12PM 44.9808 -92.7306 222° Southwest 232 267 3,100 -540 Descending Minneapolis Center
07:13PM 44.9428 -92.8022 233° Southwest 231 266 3,000 -240 Descending Minneapolis Center
07:14PM 44.9106 -92.8694 236° Southwest 211 243 2,700 -300 Descending Minneapolis Center
07:15PM 44.8858 -92.9294 240° Southwest 183 211 2,500 -240 Descending Minneapolis Center
07:16PM 44.8794 -92.9892 261° West 158 182 2,300 -480 Descending Minneapolis Center
07:17PM 44.8983 -93.0267 305° West 124 143 1,600 -600 Descending Minneapolis Center
07:18PM 44.9269 -93.0539 326° Northwest 114 131 1,100 -540 Descending Minneapolis Center
07:20PM 44.9346 -93.0603 329° Northwest  Level Estimated
07:27PM 44.9346 -93.0603 326° Northwest  Level Estimated